sensor_id;sensor_type;location;lat;lon;timestamp;pressure;altitude;pressure_sealevel;temperature;humidity
34921;BME280;21128;50.016;20.002;2023-05-07T00:00:42;98973.39;;;11.32;100.00
34921;BME280;21128;50.016;20.002;2023-05-07T00:03:22;98966.63;;;11.29;100.00
34921;BME280;21128;50.016;20.002;2023-05-07T00:05:51;98972.04;;;11.27;100.00
34921;BME280;21128;50.016;20.002;2023-05-07T00:08:19;98979.11;;;11.27;100.00
34921;BME280;21128;50.016;20.002;2023-05-07T00:10:47;98976.36;;;11.19;100.00
34921;BME280;21128;50.016;20.002;2023-05-07T00:13:14;98977.63;;;11.05;100.00
34921;BME280;21128;50.016;20.002;2023-05-07T00:15:41;98972.77;;;11.00;100.00
34921;BME280;21128;50.016;20.002;2023-05-07T00:18:08;98974.05;;;10.96;100.00
34921;BME280;21128;50.016;20.002;2023-05-07T00:20:35;98981.51;;;10.91;100.00
34921;BME280;21128;50.016;20.002;2023-05-07T00:23:02;98965.50;;;10.85;100.00
34921;BME280;21128;50.016;20.002;2023-05-07T00:25:29;98975.30;;;10.83;100.00
34921;BME280;21128;50.016;20.002;2023-05-07T00:27:56;98980.56;;;10.73;100.00
34921;BME280;21128;50.016;20.002;2023-05-07T00:30:29;98983.34;;;10.62;100.00
34921;BME280;21128;50.016;20.002;2023-05-07T00:32:56;98979.75;;;10.53;100.00
34921;BME280;21128;50.016;20.002;2023-05-07T00:35:23;98986.81;;;10.53;100.00
34921;BME280;21128;50.016;20.002;2023-05-07T00:37:50;98987.06;;;10.50;100.00
34921;BME280;21128;50.016;20.002;2023-05-07T00:40:17;98988.03;;;10.49;100.00
34921;BME280;21128;50.016;20.002;2023-05-07T00:42:44;98993.58;;;10.46;100.00
34921;BME280;21128;50.016;20.002;2023-05-07T00:45:14;98993.43;;;10.37;100.00
34921;BME280;21128;50.016;20.002;2023-05-07T00:47:41;98994.41;;;10.36;100.00
34921;BME280;21128;50.016;20.002;2023-05-07T00:50:08;98999.91;;;10.33;100.00
34921;BME280;21128;50.016;20.002;2023-05-07T00:52:39;98998.00;;;10.35;100.00
34921;BME280;21128;50.016;20.002;2023-05-07T00:55:07;98991.88;;;10.25;100.00
34921;BME280;21128;50.016;20.002;2023-05-07T00:57:36;98995.43;;;10.14;100.00
34921;BME280;21128;50.016;20.002;2023-05-07T01:00:05;98995.42;;;10.05;100.00
34921;BME280;21128;50.016;20.002;2023-05-07T01:02:32;98994.73;;;10.03;100.00
34921;BME280;21128;50.016;20.002;2023-05-07T01:05:00;99004.79;;;9.98;100.00
34921;BME280;21128;50.016;20.002;2023-05-07T01:07:28;99000.92;;;9.92;100.00
34921;BME280;21128;50.016;20.002;2023-05-07T01:09:57;99001.75;;;9.93;100.00
34921;BME280;21128;50.016;20.002;2023-05-07T01:12:25;99000.78;;;9.94;100.00
34921;BME280;21128;50.016;20.002;2023-05-07T01:14:55;99000.78;;;9.94;100.00
34921;BME280;21128;50.016;20.002;2023-05-07T01:17:23;98998.41;;;9.91;100.00
34921;BME280;21128;50.016;20.002;2023-05-07T01:19:50;99001.86;;;9.91;100.00
34921;BME280;21128;50.016;20.002;2023-05-07T01:22:28;99004.48;;;9.91;100.00
34921;BME280;21128;50.016;20.002;2023-05-07T01:24:57;98997.72;;;9.88;100.00
34921;BME280;21128;50.016;20.002;2023-05-07T01:27:26;98997.86;;;9.87;100.00
34921;BME280;21128;50.016;20.002;2023-05-07T01:29:52;98995.63;;;9.82;100.00
34921;BME280;21128;50.016;20.002;2023-05-07T01:32:32;99003.91;;;9.78;100.00
34921;BME280;21128;50.016;20.002;2023-05-07T01:35:01;99003.22;;;9.76;100.00
34921;BME280;21128;50.016;20.002;2023-05-07T01:37:29;99005.27;;;9.72;100.00
34921;BME280;21128;50.016;20.002;2023-05-07T01:39:56;99011.75;;;9.68;100.00
34921;BME280;21128;50.016;20.002;2023-05-07T01:42:24;99013.66;;;9.66;100.00
34921;BME280;21128;50.016;20.002;2023-05-07T01:44:51;99011.03;;;9.66;100.00
34921;BME280;21128;50.016;20.002;2023-05-07T01:47:18;99014.62;;;9.65;100.00
34921;BME280;21128;50.016;20.002;2023-05-07T01:49:47;99021.24;;;9.59;100.00
34921;BME280;21128;50.016;20.002;2023-05-07T01:52:14;99011.27;;;9.53;100.00
34921;BME280;21128;50.016;20.002;2023-05-07T01:54:41;99012.05;;;9.44;100.00
34921;BME280;21128;50.016;20.002;2023-05-07T01:57:08;99020.57;;;9.37;100.00
34921;BME280;21128;50.016;20.002;2023-05-07T01:59:35;99019.28;;;9.31;100.00
34921;BME280;21128;50.016;20.002;2023-05-07T02:02:02;99024.11;;;9.26;100.00
34921;BME280;21128;50.016;20.002;2023-05-07T02:04:29;99026.14;;;9.22;100.00
34921;BME280;21128;50.016;20.002;2023-05-07T02:06:56;99016.05;;;9.18;100.00
34921;BME280;21128;50.016;20.002;2023-05-07T02:09:23;99021.67;;;9.13;100.00
34921;BME280;21128;50.016;20.002;2023-05-07T02:11:50;99014.91;;;9.11;100.00
34921;BME280;21128;50.016;20.002;2023-05-07T02:14:17;99019.13;;;9.02;100.00
34921;BME280;21128;50.016;20.002;2023-05-07T02:16:44;99030.80;;;8.98;100.00
34921;BME280;21128;50.016;20.002;2023-05-07T02:19:11;99024.17;;;8.94;100.00
34921;BME280;21128;50.016;20.002;2023-05-07T02:21:38;99012.98;;;8.92;100.00
34921;BME280;21128;50.016;20.002;2023-05-07T02:24:05;99019.56;;;8.86;100.00
34921;BME280;21128;50.016;20.002;2023-05-07T02:26:32;99030.17;;;8.85;100.00
34921;BME280;21128;50.016;20.002;2023-05-07T02:28:59;99035.91;;;8.79;100.00
34921;BME280;21128;50.016;20.002;2023-05-07T02:31:26;99033.78;;;8.72;100.00
34921;BME280;21128;50.016;20.002;2023-05-07T02:33:53;99046.19;;;8.70;100.00
34921;BME280;21128;50.016;20.002;2023-05-07T02:36:20;99049.06;;;8.67;100.00
34921;BME280;21128;50.016;20.002;2023-05-07T02:38:47;99046.94;;;8.61;100.00
34921;BME280;21128;50.016;20.002;2023-05-07T02:41:14;99048.13;;;8.57;100.00
34921;BME280;21128;50.016;20.002;2023-05-07T02:43:41;99055.28;;;8.55;100.00
34921;BME280;21128;50.016;20.002;2023-05-07T02:46:09;99047.55;;;8.54;100.00
34921;BME280;21128;50.016;20.002;2023-05-07T02:48:36;99038.86;;;8.53;100.00
34921;BME280;21128;50.016;20.002;2023-05-07T02:51:03;99039.00;;;8.52;100.00
34921;BME280;21128;50.016;20.002;2023-05-07T02:53:30;99046.02;;;8.51;100.00
34921;BME280;21128;50.016;20.002;2023-05-07T02:55:59;99047.20;;;8.47;100.00
34921;BME280;21128;50.016;20.002;2023-05-07T02:58:26;99049.95;;;8.45;100.00
34921;BME280;21128;50.016;20.002;2023-05-07T03:00:53;99053.41;;;8.46;100.00
34921;BME280;21128;50.016;20.002;2023-05-07T03:03:23;99060.17;;;8.49;100.00
34921;BME280;21128;50.016;20.002;2023-05-07T03:05:51;99058.16;;;8.52;100.00
34921;BME280;21128;50.016;20.002;2023-05-07T03:08:17;99057.20;;;8.53;100.00
34921;BME280;21128;50.016;20.002;2023-05-07T03:10:44;99065.75;;;8.55;100.00
34921;BME280;21128;50.016;20.002;2023-05-07T03:13:11;99068.98;;;8.59;100.00
34921;BME280;21128;50.016;20.002;2023-05-07T03:15:38;99063.73;;;8.59;100.00
34921;BME280;21128;50.016;20.002;2023-05-07T03:18:06;99069.08;;;8.57;100.00
34921;BME280;21128;50.016;20.002;2023-05-07T03:20:33;99070.30;;;8.53;100.00
34921;BME280;21128;50.016;20.002;2023-05-07T03:23:00;99069.46;;;8.53;100.00
34921;BME280;21128;50.016;20.002;2023-05-07T03:25:27;99070.42;;;8.52;100.00
34921;BME280;21128;50.016;20.002;2023-05-07T03:27:54;99074.00;;;8.51;100.00
34921;BME280;21128;50.016;20.002;2023-05-07T03:30:21;99076.48;;;8.52;100.00
34921;BME280;21128;50.016;20.002;2023-05-07T03:32:48;99077.19;;;8.54;100.00
34921;BME280;21128;50.016;20.002;2023-05-07T03:35:15;99078.72;;;8.57;100.00
34921;BME280;21128;50.016;20.002;2023-05-07T03:37:42;99082.30;;;8.56;100.00
34921;BME280;21128;50.016;20.002;2023-05-07T03:40:09;99085.53;;;8.48;100.00
34921;BME280;21128;50.016;20.002;2023-05-07T03:42:36;99090.33;;;8.43;100.00
34921;BME280;21128;50.016;20.002;2023-05-07T03:45:04;99078.77;;;8.34;100.00
34921;BME280;21128;50.016;20.002;2023-05-07T03:47:31;99092.20;;;8.30;100.00
34921;BME280;21128;50.016;20.002;2023-05-07T03:49:58;99091.63;;;8.26;100.00
34921;BME280;21128;50.016;20.002;2023-05-07T03:52:26;99095.91;;;8.27;100.00
34921;BME280;21128;50.016;20.002;2023-05-07T03:54:53;99104.59;;;8.28;100.00
34921;BME280;21128;50.016;20.002;2023-05-07T03:57:20;99109.83;;;8.28;100.00
34921;BME280;21128;50.016;20.002;2023-05-07T03:59:47;99103.89;;;8.26;100.00
34921;BME280;21128;50.016;20.002;2023-05-07T04:02:14;99110.08;;;8.25;100.00
34921;BME280;21128;50.016;20.002;2023-05-07T04:04:41;99110.17;;;8.23;100.00
34921;BME280;21128;50.016;20.002;2023-05-07T04:07:08;99117.81;;;8.26;100.00
34921;BME280;21128;50.016;20.002;2023-05-07T04:09:35;99120.30;;;8.28;100.00
34921;BME280;21128;50.016;20.002;2023-05-07T04:12:03;99117.69;;;8.28;100.00
34921;BME280;21128;50.016;20.002;2023-05-07T04:14:30;99121.26;;;8.27;100.00
34921;BME280;21128;50.016;20.002;2023-05-07T04:16:59;99119.72;;;8.24;100.00
34921;BME280;21128;50.016;20.002;2023-05-07T04:19:26;99127.22;;;8.17;100.00
34921;BME280;21128;50.016;20.002;2023-05-07T04:21:53;99126.98;;;8.09;100.00
34921;BME280;21128;50.016;20.002;2023-05-07T04:24:20;99126.49;;;8.04;100.00
34921;BME280;21128;50.016;20.002;2023-05-07T04:26:47;99133.64;;;8.02;100.00
34921;BME280;21128;50.016;20.002;2023-05-07T04:29:14;99133.98;;;7.98;100.00
34921;BME280;21128;50.016;20.002;2023-05-07T04:31:41;99136.14;;;7.93;100.00
34921;BME280;21128;50.016;20.002;2023-05-07T04:34:11;99132.07;;;7.88;100.00
34921;BME280;21128;50.016;20.002;2023-05-07T04:36:38;99143.49;;;7.87;100.00
34921;BME280;21128;50.016;20.002;2023-05-07T04:39:05;99136.47;;;7.88;100.00
34921;BME280;21128;50.016;20.002;2023-05-07T04:41:35;99144.33;;;7.88;100.00
34921;BME280;21128;50.016;20.002;2023-05-07T04:44:02;99150.39;;;7.88;100.00
34921;BME280;21128;50.016;20.002;2023-05-07T04:46:30;99152.05;;;7.89;100.00
34921;BME280;21128;50.016;20.002;2023-05-07T04:48:57;99157.28;;;7.89;100.00
34921;BME280;21128;50.016;20.002;2023-05-07T04:51:24;99159.31;;;7.86;100.00
34921;BME280;21128;50.016;20.002;2023-05-07T04:53:52;99170.02;;;7.83;100.00
34921;BME280;21128;50.016;20.002;2023-05-07T04:56:18;99166.58;;;7.82;100.00
34921;BME280;21128;50.016;20.002;2023-05-07T04:58:47;99166.45;;;7.84;100.00
34921;BME280;21128;50.016;20.002;2023-05-07T05:01:14;99166.33;;;7.85;100.00
34921;BME280;21128;50.016;20.002;2023-05-07T05:03:40;99164.79;;;7.83;100.00
34921;BME280;21128;50.016;20.002;2023-05-07T05:06:08;99180.58;;;7.81;100.00
34921;BME280;21128;50.016;20.002;2023-05-07T05:08:35;99181.66;;;7.79;100.00
34921;BME280;21128;50.016;20.002;2023-05-07T05:11:02;99181.89;;;7.76;100.00
34921;BME280;21128;50.016;20.002;2023-05-07T05:13:29;99180.56;;;7.70;100.00
34921;BME280;21128;50.016;20.002;2023-05-07T05:15:57;99184.25;;;7.68;100.00
34921;BME280;21128;50.016;20.002;2023-05-07T05:18:23;99191.27;;;7.67;100.00
34921;BME280;21128;50.016;20.002;2023-05-07T05:20:51;99190.56;;;7.65;100.00
34921;BME280;21128;50.016;20.002;2023-05-07T05:23:19;99198.49;;;7.63;100.00
34921;BME280;21128;50.016;20.002;2023-05-07T05:25:46;99194.22;;;7.62;100.00
34921;BME280;21128;50.016;20.002;2023-05-07T05:28:13;99198.61;;;7.62;100.00
34921;BME280;21128;50.016;20.002;2023-05-07T05:30:40;99202.18;;;7.61;100.00
34921;BME280;21128;50.016;20.002;2023-05-07T05:33:07;99201.35;;;7.60;100.00
34921;BME280;21128;50.016;20.002;2023-05-07T05:35:34;99203.96;;;7.60;100.00
34921;BME280;21128;50.016;20.002;2023-05-07T05:38:02;99215.14;;;7.62;100.00
34921;BME280;21128;50.016;20.002;2023-05-07T05:40:29;99216.21;;;7.60;100.00
34921;BME280;21128;50.016;20.002;2023-05-07T05:42:56;99211.55;;;7.52;100.00
34921;BME280;21128;50.016;20.002;2023-05-07T05:45:24;99217.34;;;7.45;100.00
34921;BME280;21128;50.016;20.002;2023-05-07T05:47:51;99215.91;;;7.41;100.00
34921;BME280;21128;50.016;20.002;2023-05-07T05:50:18;99229.81;;;7.41;100.00
34921;BME280;21128;50.016;20.002;2023-05-07T05:52:45;99232.52;;;7.40;100.00
34921;BME280;21128;50.016;20.002;2023-05-07T05:55:12;99230.77;;;7.40;100.00
34921;BME280;21128;50.016;20.002;2023-05-07T05:57:39;99237.86;;;7.38;100.00
34921;BME280;21128;50.016;20.002;2023-05-07T06:00:07;99233.58;;;7.37;100.00
34921;BME280;21128;50.016;20.002;2023-05-07T06:02:34;99246.27;;;7.30;100.00
34921;BME280;21128;50.016;20.002;2023-05-07T06:05:01;99245.06;;;7.23;100.00
34921;BME280;21128;50.016;20.002;2023-05-07T06:07:28;99247.28;;;7.17;100.00
34921;BME280;21128;50.016;20.002;2023-05-07T06:09:55;99249.38;;;7.12;100.00
34921;BME280;21128;50.016;20.002;2023-05-07T06:12:22;99248.14;;;7.04;100.00
34921;BME280;21128;50.016;20.002;2023-05-07T06:14:49;99256.33;;;7.00;100.00
34921;BME280;21128;50.016;20.002;2023-05-07T06:17:16;99254.97;;;6.94;100.00
34921;BME280;21128;50.016;20.002;2023-05-07T06:19:43;99265.02;;;6.88;100.00
34921;BME280;21128;50.016;20.002;2023-05-07T06:22:10;99261.57;;;6.87;100.00
34921;BME280;21128;50.016;20.002;2023-05-07T06:24:37;99273.80;;;6.87;100.00
34921;BME280;21128;50.016;20.002;2023-05-07T06:27:04;99263.47;;;6.85;100.00
34921;BME280;21128;50.016;20.002;2023-05-07T06:29:31;99266.08;;;6.85;100.00
34921;BME280;21128;50.016;20.002;2023-05-07T06:32:10;99272.85;;;6.88;100.00
34921;BME280;21128;50.016;20.002;2023-05-07T06:34:38;99271.71;;;6.92;100.00
34921;BME280;21128;50.016;20.002;2023-05-07T06:37:06;99265.77;;;6.90;100.00
34921;BME280;21128;50.016;20.002;2023-05-07T06:39:33;99273.61;;;6.90;100.00
34921;BME280;21128;50.016;20.002;2023-05-07T06:42:01;99269.21;;;6.90;100.00
34921;BME280;21128;50.016;20.002;2023-05-07T06:44:31;99269.09;;;6.92;100.00
34921;BME280;21128;50.016;20.002;2023-05-07T06:46:58;99276.22;;;6.90;100.00
34921;BME280;21128;50.016;20.002;2023-05-07T06:49:25;99279.74;;;6.89;100.00
34921;BME280;21128;50.016;20.002;2023-05-07T06:51:52;99282.27;;;6.90;100.00
34921;BME280;21128;50.016;20.002;2023-05-07T06:54:20;99276.10;;;6.91;100.00
34921;BME280;21128;50.016;20.002;2023-05-07T06:56:47;99277.66;;;6.94;100.00
34921;BME280;21128;50.016;20.002;2023-05-07T06:59:14;99280.98;;;6.96;100.00
34921;BME280;21128;50.016;20.002;2023-05-07T07:01:41;99276.59;;;6.96;100.00
34921;BME280;21128;50.016;20.002;2023-05-07T07:04:08;99281.09;;;6.94;100.00
34921;BME280;21128;50.016;20.002;2023-05-07T07:06:35;99283.71;;;6.94;100.00
34921;BME280;21128;50.016;20.002;2023-05-07T07:09:02;99291.55;;;6.94;100.00
34921;BME280;21128;50.016;20.002;2023-05-07T07:11:29;99294.57;;;7.01;100.00
34921;BME280;21128;50.016;20.002;2023-05-07T07:13:57;99304.80;;;7.04;100.00
34921;BME280;21128;50.016;20.002;2023-05-07T07:16:26;99305.52;;;7.06;100.00
34921;BME280;21128;50.016;20.002;2023-05-07T07:18:53;99304.48;;;7.09;100.00
34921;BME280;21128;50.016;20.002;2023-05-07T07:21:20;99308.77;;;7.10;100.00
34921;BME280;21128;50.016;20.002;2023-05-07T07:23:47;99314.59;;;7.13;100.00
34921;BME280;21128;50.016;20.002;2023-05-07T07:26:14;99313.45;;;7.17;100.00
34921;BME280;21128;50.016;20.002;2023-05-07T07:28:43;99321.06;;;7.20;100.00
34921;BME280;21128;50.016;20.002;2023-05-07T07:31:10;99322.73;;;7.21;100.00
34921;BME280;21128;50.016;20.002;2023-05-07T07:33:38;99322.84;;;7.20;100.00
34921;BME280;21128;50.016;20.002;2023-05-07T07:36:06;99329.02;;;7.19;100.00
34921;BME280;21128;50.016;20.002;2023-05-07T07:38:34;99333.84;;;7.12;100.00
34921;BME280;21128;50.016;20.002;2023-05-07T07:41:01;99343.68;;;7.09;100.00
34921;BME280;21128;50.016;20.002;2023-05-07T07:43:28;99344.94;;;7.03;100.00
34921;BME280;21128;50.016;20.002;2023-05-07T07:45:55;99335.55;;;7.00;100.00
34921;BME280;21128;50.016;20.002;2023-05-07T07:48:22;99349.33;;;7.02;100.00
34921;BME280;21128;50.016;20.002;2023-05-07T07:50:49;99345.58;;;7.07;100.00
34921;BME280;21128;50.016;20.002;2023-05-07T07:53:18;99346.41;;;7.07;100.00
34921;BME280;21128;50.016;20.002;2023-05-07T07:55:45;99347.02;;;7.11;100.00
34921;BME280;21128;50.016;20.002;2023-05-07T07:58:12;99348.48;;;7.15;100.00
34921;BME280;21128;50.016;20.002;2023-05-07T08:00:39;99353.48;;;7.18;100.00
34921;BME280;21128;50.016;20.002;2023-05-07T08:03:09;99352.54;;;7.19;100.00
34921;BME280;21128;50.016;20.002;2023-05-07T08:05:36;99360.16;;;7.22;100.00
34921;BME280;21128;50.016;20.002;2023-05-07T08:08:05;99356.09;;;7.18;100.00
34921;BME280;21128;50.016;20.002;2023-05-07T08:10:32;99368.33;;;7.17;100.00
34921;BME280;21128;50.016;20.002;2023-05-07T08:13:05;99360.37;;;7.19;100.00
34921;BME280;21128;50.016;20.002;2023-05-07T08:15:32;99361.22;;;7.19;100.00
34921;BME280;21128;50.016;20.002;2023-05-07T08:17:59;99365.30;;;7.23;100.00
34921;BME280;21128;50.016;20.002;2023-05-07T08:20:29;99374.17;;;7.21;100.00
34921;BME280;21128;50.016;20.002;2023-05-07T08:22:56;99372.92;;;7.14;100.00
34921;BME280;21128;50.016;20.002;2023-05-07T08:25:23;99377.77;;;7.07;100.00
34921;BME280;21128;50.016;20.002;2023-05-07T08:27:50;99375.98;;;7.08;100.00
34921;BME280;21128;50.016;20.002;2023-05-07T08:30:17;99387.69;;;7.02;100.00
34921;BME280;21128;50.016;20.002;2023-05-07T08:32:44;99395.00;;;6.97;100.00
34921;BME280;21128;50.016;20.002;2023-05-07T08:35:11;99391.55;;;6.96;100.00
34921;BME280;21128;50.016;20.002;2023-05-07T08:37:38;99395.83;;;6.97;100.00
34921;BME280;21128;50.016;20.002;2023-05-07T08:40:06;99402.11;;;6.95;100.00
34921;BME280;21128;50.016;20.002;2023-05-07T08:42:37;99406.19;;;6.86;100.00
34921;BME280;21128;50.016;20.002;2023-05-07T08:45:10;99411.41;;;6.86;100.00
34921;BME280;21128;50.016;20.002;2023-05-07T08:47:43;99415.80;;;6.86;100.00
34921;BME280;21128;50.016;20.002;2023-05-07T08:50:12;99413.19;;;6.86;100.00
34921;BME280;21128;50.016;20.002;2023-05-07T08:52:40;99418.53;;;6.84;100.00
34921;BME280;21128;50.016;20.002;2023-05-07T08:55:08;99411.64;;;6.83;100.00
34921;BME280;21128;50.016;20.002;2023-05-07T08:57:35;99421.36;;;6.81;100.00
34921;BME280;21128;50.016;20.002;2023-05-07T09:00:03;99422.09;;;6.83;100.00
34921;BME280;21128;50.016;20.002;2023-05-07T09:02:31;99424.88;;;6.80;100.00
34921;BME280;21128;50.016;20.002;2023-05-07T09:04:58;99424.16;;;6.78;100.00
34921;BME280;21128;50.016;20.002;2023-05-07T09:07:25;99420.60;;;6.79;100.00
34921;BME280;21128;50.016;20.002;2023-05-07T09:09:53;99431.05;;;6.79;100.00
34921;BME280;21128;50.016;20.002;2023-05-07T09:12:22;99428.33;;;6.81;100.00
34921;BME280;21128;50.016;20.002;2023-05-07T09:14:49;99431.70;;;6.83;100.00
34921;BME280;21128;50.016;20.002;2023-05-07T09:17:16;99435.25;;;6.82;100.00
34921;BME280;21128;50.016;20.002;2023-05-07T09:19:47;99442.33;;;6.80;100.00
34921;BME280;21128;50.016;20.002;2023-05-07T09:22:14;99449.23;;;6.81;100.00
34921;BME280;21128;50.016;20.002;2023-05-07T09:24:50;99455.32;;;6.81;100.00
34921;BME280;21128;50.016;20.002;2023-05-07T09:27:17;99455.72;;;6.75;100.00
34921;BME280;21128;50.016;20.002;2023-05-07T09:29:44;99456.56;;;6.75;100.00
34921;BME280;21128;50.016;20.002;2023-05-07T09:32:11;99459.78;;;6.79;100.00
34921;BME280;21128;50.016;20.002;2023-05-07T09:34:39;99462.40;;;6.79;100.00
34921;BME280;21128;50.016;20.002;2023-05-07T09:37:06;99458.84;;;6.80;100.00
34921;BME280;21128;50.016;20.002;2023-05-07T09:42:07;99463.77;;;6.85;100.00
34921;BME280;21128;50.016;20.002;2023-05-07T09:44:35;99464.61;;;6.85;100.00
34921;BME280;21128;50.016;20.002;2023-05-07T09:47:05;99465.55;;;6.84;100.00
34921;BME280;21128;50.016;20.002;2023-05-07T09:49:38;99471.83;;;6.82;100.00
34921;BME280;21128;50.016;20.002;2023-05-07T09:52:06;99467.44;;;6.82;100.00
34921;BME280;21128;50.016;20.002;2023-05-07T09:54:36;99470.98;;;6.81;100.00
34921;BME280;21128;50.016;20.002;2023-05-07T09:57:05;99475.89;;;6.86;100.00
34921;BME280;21128;50.016;20.002;2023-05-07T09:59:34;99476.61;;;6.88;100.00
34921;BME280;21128;50.016;20.002;2023-05-07T10:02:03;99477.45;;;6.88;100.00
34921;BME280;21128;50.016;20.002;2023-05-07T10:04:31;99479.34;;;6.86;100.00
34921;BME280;21128;50.016;20.002;2023-05-07T10:06:59;99476.72;;;6.86;100.00
34921;BME280;21128;50.016;20.002;2023-05-07T10:09:27;99483.22;;;6.93;100.00
34921;BME280;21128;50.016;20.002;2023-05-07T10:11:56;99481.64;;;7.03;100.00
34921;BME280;21128;50.016;20.002;2023-05-07T10:14:24;99491.69;;;7.10;100.00
34921;BME280;21128;50.016;20.002;2023-05-07T10:16:53;99496.09;;;7.09;100.00
34921;BME280;21128;50.016;20.002;2023-05-07T10:19:22;99495.97;;;7.11;100.00
34921;BME280;21128;50.016;20.002;2023-05-07T10:21:58;99498.48;;;7.12;100.00
34921;BME280;21128;50.016;20.002;2023-05-07T10:24:29;99494.92;;;7.13;100.00
34921;BME280;21128;50.016;20.002;2023-05-07T10:26:59;99495.36;;;7.07;100.00
34921;BME280;21128;50.016;20.002;2023-05-07T10:34:38;99500.26;;;7.12;100.00
34921;BME280;21128;50.016;20.002;2023-05-07T10:37:08;99511.88;;;7.08;100.00
34921;BME280;21128;50.016;20.002;2023-05-07T10:39:40;99517.72;;;6.98;100.00
34921;BME280;21128;50.016;20.002;2023-05-07T10:42:12;99511.95;;;6.93;100.00
34921;BME280;21128;50.016;20.002;2023-05-07T10:44:42;99519.28;;;7.01;100.00
34921;BME280;21128;50.016;20.002;2023-05-07T10:47:15;99516.56;;;7.02;100.00
34921;BME280;21128;50.016;20.002;2023-05-07T10:52:18;99519.72;;;7.08;100.00
34921;BME280;21128;50.016;20.002;2023-05-07T10:54:46;99515.11;;;6.98;100.00
34921;BME280;21128;50.016;20.002;2023-05-07T11:05:31;99539.02;;;6.92;100.00
34921;BME280;21128;50.016;20.002;2023-05-07T11:08:03;99528.03;;;6.87;100.00
34921;BME280;21128;50.016;20.002;2023-05-07T11:10:51;99537.35;;;6.91;100.00
34921;BME280;21128;50.016;20.002;2023-05-07T11:13:48;99533.69;;;6.94;100.00
34921;BME280;21128;50.016;20.002;2023-05-07T11:16:22;99532.23;;;7.02;100.00
34921;BME280;21128;50.016;20.002;2023-05-07T11:18:51;99532.56;;;7.11;100.00
34921;BME280;21128;50.016;20.002;2023-05-07T11:21:38;99541.89;;;7.15;100.00
34921;BME280;21128;50.016;20.002;2023-05-07T11:24:08;99538.63;;;7.11;100.00
34921;BME280;21128;50.016;20.002;2023-05-07T11:26:48;99529.11;;;7.10;100.00
34921;BME280;21128;50.016;20.002;2023-05-07T11:29:22;99533.18;;;7.14;100.00
34921;BME280;21128;50.016;20.002;2023-05-07T11:31:51;99537.05;;;7.21;100.00
34921;BME280;21128;50.016;20.002;2023-05-07T11:34:23;99540.09;;;7.28;100.00
34921;BME280;21128;50.016;20.002;2023-05-07T11:36:51;99541.58;;;7.32;100.00
34921;BME280;21128;50.016;20.002;2023-05-07T11:39:29;99543.97;;;7.35;100.00
34921;BME280;21128;50.016;20.002;2023-05-07T11:41:57;99539.47;;;7.37;100.00
34921;BME280;21128;50.016;20.002;2023-05-07T11:44:24;99539.38;;;7.26;100.00
34921;BME280;21128;50.016;20.002;2023-05-07T11:46:51;99546.68;;;7.21;100.00
34921;BME280;21128;50.016;20.002;2023-05-07T11:49:18;99554.02;;;7.16;100.00
34921;BME280;21128;50.016;20.002;2023-05-07T11:51:45;99552.52;;;7.12;100.00
34921;BME280;21128;50.016;20.002;2023-05-07T11:54:15;99548.97;;;7.13;100.00
34921;BME280;21128;50.016;20.002;2023-05-07T11:56:44;99553.25;;;7.14;100.00
34921;BME280;21128;50.016;20.002;2023-05-07T11:59:11;99557.45;;;7.16;100.00
34921;BME280;21128;50.016;20.002;2023-05-07T12:01:38;99564.36;;;7.17;100.00
34921;BME280;21128;50.016;20.002;2023-05-07T12:04:05;99568.75;;;7.17;100.00
34921;BME280;21128;50.016;20.002;2023-05-07T12:06:36;99572.09;;;7.19;100.00
34921;BME280;21128;50.016;20.002;2023-05-07T12:09:03;99571.80;;;7.23;100.00
34921;BME280;21128;50.016;20.002;2023-05-07T12:11:30;99570.42;;;7.30;100.00
34921;BME280;21128;50.016;20.002;2023-05-07T12:13:57;99573.46;;;7.37;100.00
34921;BME280;21128;50.016;20.002;2023-05-07T12:16:24;99566.45;;;7.38;100.00
34921;BME280;21128;50.016;20.002;2023-05-07T12:18:53;99575.13;;;7.38;100.00
34921;BME280;21128;50.016;20.002;2023-05-07T12:21:22;99570.01;;;7.37;100.00
34921;BME280;21128;50.016;20.002;2023-05-07T12:23:50;99573.35;;;7.39;100.00
34921;BME280;21128;50.016;20.002;2023-05-07T12:26:19;99570.01;;;7.37;100.00
34921;BME280;21128;50.016;20.002;2023-05-07T12:28:47;99579.85;;;7.33;100.00
34921;BME280;21128;50.016;20.002;2023-05-07T12:31:14;99573.68;;;7.34;100.00
34921;BME280;21128;50.016;20.002;2023-05-07T12:33:42;99578.69;;;7.37;100.00
34921;BME280;21128;50.016;20.002;2023-05-07T12:36:12;99590.09;;;7.36;100.00
34921;BME280;21128;50.016;20.002;2023-05-07T12:38:40;99594.38;;;7.37;100.00
34921;BME280;21128;50.016;20.002;2023-05-07T12:41:10;99582.47;;;7.33;100.00
34921;BME280;21128;50.016;20.002;2023-05-07T12:43:38;99586.75;;;7.34;100.00
34921;BME280;21128;50.016;20.002;2023-05-07T12:46:07;99588.64;;;7.32;100.00
34921;BME280;21128;50.016;20.002;2023-05-07T12:48:37;99586.94;;;7.31;100.00
34921;BME280;21128;50.016;20.002;2023-05-07T12:51:05;99592.16;;;7.31;100.00
34921;BME280;21128;50.016;20.002;2023-05-07T12:53:32;99589.55;;;7.31;100.00
34921;BME280;21128;50.016;20.002;2023-05-07T12:55:59;99590.20;;;7.34;100.00
34921;BME280;21128;50.016;20.002;2023-05-07T12:58:29;99596.05;;;7.38;100.00
34921;BME280;21128;50.016;20.002;2023-05-07T13:00:58;99593.55;;;7.37;100.00
34921;BME280;21128;50.016;20.002;2023-05-07T13:03:31;99598.55;;;7.40;100.00
34921;BME280;21128;50.016;20.002;2023-05-07T13:06:03;99595.64;;;7.44;100.00
34921;BME280;21128;50.016;20.002;2023-05-07T13:08:36;99595.42;;;7.47;100.00
34921;BME280;21128;50.016;20.002;2023-05-07T13:11:06;99602.36;;;7.48;100.00
34921;BME280;21128;50.016;20.002;2023-05-07T13:13:36;99604.64;;;7.53;100.00